Time;durP1;ratioP1;P1;durP2;ratioP2;P2;SDS_P1;SDS_P2;PMS_P1;PMS_P2;Temp;Humidity;BMP_temperature;BMP_pressure;BME280_temperature;BME280_humidity;BME280_pressure;Samples;Min_cycle;Max_cycle;Signal;HPM_P1;HPM_P2
2023/10/14 00:01:24;;;;;;;5.00;1.45;;;16.30;83.10;;;;;;6221098;22;20012;-88
2023/10/14 00:03:50;;;;;;;5.85;1.27;;;16.20;82.80;;;;;;6224032;23;20023;-88
2023/10/14 00:06:18;;;;;;;5.28;0.95;;;16.60;82.90;;;;;;6216764;23;20017;-89
2023/10/14 00:09:01;;;;;;;7.43;1.35;;;16.10;82.50;;;;;;6191705;23;20063;-89
2023/10/14 00:11:33;;;;;;;4.25;0.90;;;16.00;82.00;;;;;;6216572;23;20024;-88
2023/10/14 00:13:59;;;;;;;5.50;0.90;;;16.00;81.70;;;;;;6217054;23;20012;-90
2023/10/14 00:18:58;;;;;;;6.43;0.95;;;16.10;81.80;;;;;;6219096;23;20023;-90
2023/10/14 00:21:25;;;;;;;6.07;1.08;;;15.80;81.00;;;;;;6219371;23;20012;-90
2023/10/14 00:23:58;;;;;;;4.13;1.67;;;15.80;80.60;;;;;;6197558;23;20023;-90
2023/10/14 00:26:25;;;;;;;6.22;1.40;;;15.70;80.40;;;;;;6220488;23;20027;-89
2023/10/14 00:28:54;;;;;;;7.10;1.80;;;15.60;81.00;;;;;;6219401;23;20314;-90
2023/10/14 00:31:23;;;;;;;5.72;0.90;;;15.60;81.00;;;;;;6218855;23;20035;-89
2023/10/14 00:33:52;;;;;;;4.35;0.93;;;16.10;81.40;;;;;;6193602;23;20008;-89
2023/10/14 00:36:21;;;;;;;5.95;1.33;;;15.50;81.00;;;;;;6194254;23;20015;-89
2023/10/14 00:38:55;;;;;;;7.25;0.90;;;15.50;81.00;;;;;;6218904;23;20050;-88
2023/10/14 00:41:22;;;;;;;7.25;1.50;;;15.50;81.20;;;;;;6219437;23;20009;-89
2023/10/14 00:43:48;;;;;;;8.98;1.83;;;15.50;81.20;;;;;;6218739;23;20016;-88
2023/10/14 00:46:14;;;;;;;5.15;1.33;;;15.40;81.00;;;;;;6218525;23;20022;-89
2023/10/14 00:48:41;;;;;;;5.10;0.70;;;15.40;81.00;;;;;;6220235;23;20091;-90
2023/10/14 00:51:10;;;;;;;5.95;1.15;;;15.40;81.20;;;;;;6195492;23;20039;-89
2023/10/14 00:53:39;;;;;;;4.95;1.08;;;15.40;81.40;;;;;;6225711;23;20048;-89
2023/10/14 00:56:11;;;;;;;4.45;1.27;;;15.40;81.50;;;;;;6194898;23;20205;-89
2023/10/14 00:58:41;;;;;;;7.32;1.67;;;15.40;81.60;;;;;;6193617;23;20301;-89
2023/10/14 01:01:07;;;;;;;8.10;2.05;;;15.30;81.40;;;;;;6219018;23;20337;-90
2023/10/14 01:03:34;;;;;;;3.47;1.20;;;15.30;81.30;;;;;;6237336;22;20016;-90
2023/10/14 01:06:22;;;;;;;5.78;1.48;;;15.40;81.10;;;;;;6221613;22;20012;-90
2023/10/14 01:08:55;;;;;;;9.35;2.10;;;15.30;80.90;;;;;;6221744;22;20015;-90
2023/10/14 01:11:24;;;;;;;6.82;1.50;;;15.20;80.50;;;;;;6221179;22;20008;-89
2023/10/14 01:13:51;;;;;;;6.43;1.55;;;15.20;80.20;;;;;;6245999;22;20389;-90
2023/10/14 01:16:24;;;;;;;4.90;1.27;;;15.10;79.90;;;;;;6246843;22;20056;-89
2023/10/14 01:18:50;;;;;;;5.97;1.98;;;15.20;79.80;;;;;;6222467;22;20008;-89
2023/10/14 01:21:15;;;;;;;4.55;1.50;;;15.10;79.60;;;;;;6249515;22;20014;-89
2023/10/14 01:23:44;;;;;;;6.10;1.35;;;15.20;79.70;;;;;;6248902;22;20364;-89
2023/10/14 01:26:10;;;;;;;8.95;1.70;;;15.00;79.50;;;;;;6248961;22;20014;-90
2023/10/14 01:28:43;;;;;;;8.50;2.05;;;15.00;79.20;;;;;;6249521;22;20082;-89
2023/10/14 01:31:46;;;;;;;7.78;2.15;;;15.30;79.40;;;;;;6249328;22;20065;-90
2023/10/14 01:34:24;;;;;;;9.65;1.58;;;14.90;78.60;;;;;;6225798;22;20067;-88
2023/10/14 01:36:50;;;;;;;5.32;1.52;;;14.90;78.90;;;;;;6251768;22;20008;-90
2023/10/14 01:39:21;;;;;;;6.85;1.50;;;14.80;79.00;;;;;;6251197;22;20004;-89
2023/10/14 01:41:47;;;;;;;6.93;1.80;;;14.80;79.20;;;;;;6248305;22;20003;-89
2023/10/14 01:44:21;;;;;;;10.43;2.08;;;14.90;79.40;;;;;;6275120;22;20057;-89
2023/10/14 01:46:47;;;;;;;5.43;1.15;;;14.80;79.20;;;;;;6276372;22;20015;-89
2023/10/14 01:49:19;;;;;;;4.47;1.23;;;14.90;79.10;;;;;;6266651;22;20109;-89
2023/10/14 01:51:50;;;;;;;8.05;1.63;;;14.80;79.20;;;;;;6224099;22;20432;-89
2023/10/14 01:54:16;;;;;;;8.20;2.00;;;14.70;79.30;;;;;;6248754;22;20008;-90
2023/10/14 01:56:43;;;;;;;9.23;2.05;;;14.70;79.50;;;;;;6248548;22;20030;-90
2023/10/14 01:59:09;;;;;;;6.13;1.35;;;15.10;80.00;;;;;;6248800;22;20004;-89
2023/10/14 02:01:41;;;;;;;5.65;1.73;;;15.00;80.30;;;;;;6248886;22;20015;-89
2023/10/14 02:04:07;;;;;;;8.43;1.50;;;14.70;80.20;;;;;;6197540;23;20008;-89
2023/10/14 02:06:33;;;;;;;4.45;1.08;;;14.60;80.10;;;;;;6218767;23;20012;-89
2023/10/14 02:09:00;;;;;;;5.03;1.13;;;14.60;80.00;;;;;;6218402;23;20004;-88
2023/10/14 02:11:33;;;;;;;7.65;2.28;;;14.60;80.10;;;;;;6218158;23;20434;-89
2023/10/14 02:13:59;;;;;;;6.85;1.60;;;14.60;80.20;;;;;;6193430;23;20048;-90
2023/10/14 02:16:25;;;;;;;5.65;1.63;;;14.60;80.20;;;;;;6219250;23;20328;-90
2023/10/14 02:21:57;;;;;;;6.22;1.63;;;14.50;80.00;;;;;;6168834;23;20020;-89
2023/10/14 02:24:25;;;;;;;4.05;1.02;;;14.50;80.00;;;;;;6193153;23;20012;-89
2023/10/14 02:26:51;;;;;;;6.55;1.30;;;14.50;80.00;;;;;;6192868;23;20008;-89
2023/10/14 02:29:17;;;;;;;6.03;1.77;;;14.50;80.00;;;;;;6218284;23;20054;-89
2023/10/14 02:31:46;;;;;;;5.22;1.45;;;14.80;80.20;;;;;;6243339;23;20011;-89
2023/10/14 02:34:15;;;;;;;8.18;1.40;;;14.40;80.00;;;;;;6217901;23;20306;-89
2023/10/14 02:36:51;;;;;;;7.63;1.55;;;14.40;79.80;;;;;;6218305;23;20012;-90
2023/10/14 02:39:25;;;;;;;5.28;1.40;;;14.40;79.60;;;;;;6217564;23;20012;-89
2023/10/14 02:42:06;;;;;;;10.30;2.95;;;14.30;79.70;;;;;;6217147;23;20015;-89
2023/10/14 02:44:33;;;;;;;7.05;2.38;;;14.30;79.80;;;;;;6218180;23;20097;-89
2023/10/14 02:47:05;;;;;;;8.50;1.77;;;14.30;79.90;;;;;;6218006;23;20012;-89
2023/10/14 02:49:37;;;;;;;3.72;1.30;;;14.30;79.90;;;;;;6192796;23;20022;-89
2023/10/14 02:52:17;;;;;;;5.93;1.13;;;14.30;79.80;;;;;;6217579;23;20012;-89
2023/10/14 02:54:45;;;;;;;5.55;1.55;;;14.20;79.70;;;;;;6217435;23;20008;-89
2023/10/14 02:57:15;;;;;;;6.95;1.50;;;14.20;79.90;;;;;;6192457;23;20139;-89
2023/10/14 03:07:33;;;;;;;4.50;1.20;;;14.00;79.70;;;;;;6253620;22;20074;-89
2023/10/14 03:12:49;;;;;;;5.47;1.35;;;14.00;79.70;;;;;;6247958;22;20016;-89
2023/10/14 03:15:20;;;;;;;8.90;1.30;;;14.00;79.70;;;;;;6247901;22;20413;-89
2023/10/14 03:17:58;;;;;;;8.40;2.58;;;13.90;79.70;;;;;;6247794;22;20333;-89
2023/10/14 03:23:17;;;;;;;7.93;1.40;;;13.90;79.60;;;;;;6248048;22;20115;-89
2023/10/14 03:25:44;;;;;;;6.25;1.50;;;13.90;79.50;;;;;;6247859;22;20069;-89
2023/10/14 03:28:16;;;;;;;8.23;1.88;;;13.80;79.60;;;;;;6247918;22;20012;-89
2023/10/14 03:30:45;;;;;;;7.10;1.42;;;13.80;79.60;;;;;;6247889;22;20015;-88
2023/10/14 03:33:20;;;;;;;7.55;1.63;;;13.80;79.50;;;;;;6248057;22;20014;-88
2023/10/14 03:36:05;;;;;;;7.35;1.80;;;13.70;79.40;;;;;;6222957;22;20318;-89
2023/10/14 03:41:18;;;;;;;4.80;1.27;;;13.70;79.80;;;;;;6247980;22;20015;-90
2023/10/14 03:43:58;;;;;;;5.22;1.10;;;13.70;79.80;;;;;;6222526;22;20381;-89
2023/10/14 03:48:56;;;;;;;8.95;1.80;;;13.60;79.90;;;;;;6247029;22;20094;-89
2023/10/14 03:51:27;;;;;;;8.30;1.63;;;13.60;80.00;;;;;;6222425;22;20016;-89
2023/10/14 03:53:57;;;;;;;5.68;1.05;;;13.50;80.00;;;;;;6249220;22;20038;-89
2023/10/14 03:56:27;;;;;;;5.25;1.10;;;13.60;80.00;;;;;;6249338;22;20433;-88
2023/10/14 03:58:55;;;;;;;5.63;1.27;;;13.50;79.80;;;;;;6249555;22;20004;-88
2023/10/14 04:01:23;;;;;;;4.15;1.52;;;13.50;79.60;;;;;;6249789;22;20012;-89
2023/10/14 04:03:52;;;;;;;6.28;1.38;;;13.50;79.40;;;;;;6224311;22;20015;-88
2023/10/14 04:06:21;;;;;;;5.05;1.00;;;13.40;79.40;;;;;;6250537;22;20015;-88
2023/10/14 04:08:48;;;;;;;4.90;1.23;;;13.40;79.50;;;;;;6249744;22;20095;-89
2023/10/14 04:11:38;;;;;;;7.63;1.63;;;13.40;79.60;;;;;;6250045;22;20054;-88
2023/10/14 04:14:07;;;;;;;8.32;1.85;;;13.40;79.60;;;;;;6249891;22;20441;-89
2023/10/14 04:19:44;;;;;;;6.45;1.17;;;13.40;79.60;;;;;;6249960;22;20022;-88
2023/10/14 04:21:59;;;;;;;6.00;1.10;;;13.30;79.50;;;;;;6247907;22;20012;-88
2023/10/14 04:24:47;;;;;;;8.07;1.55;;;13.30;79.60;;;;;;6250170;22;20100;-88
2023/10/14 04:27:30;;;;;;;6.45;1.30;;;13.30;79.80;;;;;;6251349;22;20016;-88
2023/10/14 04:30:11;;;;;;;9.45;1.98;;;13.30;79.20;;;;;;6230792;22;20087;-88
2023/10/14 04:32:47;;;;;;;5.55;1.60;;;13.20;79.00;;;;;;6264139;22;20022;-88
2023/10/14 04:35:19;;;;;;;8.57;1.50;;;13.20;79.10;;;;;;6273682;22;20038;-88
2023/10/14 04:37:51;;;;;;;9.70;1.60;;;13.20;79.20;;;;;;6273383;22;20110;-87
2023/10/14 04:43:17;;;;;;;6.25;1.13;;;13.10;79.30;;;;;;6248996;22;20099;-88
2023/10/14 04:45:52;;;;;;;8.25;1.58;;;13.10;79.40;;;;;;6248761;22;20019;-88
2023/10/14 04:48:35;;;;;;;7.32;1.90;;;13.10;79.50;;;;;;6248501;22;20061;-87
2023/10/14 04:51:19;;;;;;;4.55;1.23;;;13.10;79.60;;;;;;6248037;22;20310;-88
2023/10/14 04:53:49;;;;;;;7.28;1.80;;;13.10;79.80;;;;;;6223477;22;20249;-88
2023/10/14 04:56:29;;;;;;;10.63;1.58;;;13.10;79.80;;;;;;6248712;22;20003;-89
2023/10/14 04:58:55;;;;;;;6.78;1.20;;;13.00;79.70;;;;;;6248155;22;20372;-88
2023/10/14 05:01:24;;;;;;;8.85;2.30;;;13.00;79.80;;;;;;6247949;22;20092;-89
2023/10/14 05:03:55;;;;;;;7.88;1.33;;;13.10;79.80;;;;;;6248154;22;20018;-88
2023/10/14 05:06:21;;;;;;;4.68;1.20;;;12.70;79.60;;;;;;6247911;22;20012;-89
2023/10/14 05:08:51;;;;;;;8.02;1.60;;;13.00;79.70;;;;;;6223243;22;20445;-88
2023/10/14 05:11:18;;;;;;;8.63;2.00;;;13.50;80.00;;;;;;6250487;22;20007;-88
2023/10/14 05:16:29;;;;;;;6.40;1.50;;;13.00;79.70;;;;;;6262699;22;20016;-88
2023/10/14 05:19:06;;;;;;;7.97;1.45;;;13.00;79.70;;;;;;6226649;22;20008;-88
2023/10/14 05:21:35;;;;;;;8.32;2.10;;;12.90;79.80;;;;;;6248322;22;20011;-88
2023/10/14 05:24:06;;;;;;;5.32;1.20;;;12.90;79.80;;;;;;6248614;22;20012;-87
2023/10/14 05:26:35;;;;;;;6.72;2.00;;;12.90;79.80;;;;;;6223298;22;20090;-88
2023/10/14 05:29:11;;;;;;;6.85;1.90;;;12.90;79.90;;;;;;6248644;22;20074;-88
2023/10/14 05:31:37;;;;;;;8.80;1.75;;;12.90;79.70;;;;;;6248705;22;20073;-88
2023/10/14 05:34:04;;;;;;;7.95;1.98;;;13.10;79.70;;;;;;6222989;22;20016;-87
2023/10/14 05:36:32;;;;;;;9.10;1.60;;;12.90;79.50;;;;;;6247656;22;20389;-87
2023/10/14 05:38:57;;;;;;;7.30;1.70;;;12.80;79.50;;;;;;6248290;22;20086;-87
2023/10/14 05:41:23;;;;;;;12.32;1.85;;;12.80;79.50;;;;;;6248395;22;20046;-88
2023/10/14 05:43:51;;;;;;;9.38;2.35;;;12.80;79.30;;;;;;6222658;22;20356;-87
2023/10/14 05:46:16;;;;;;;8.65;2.45;;;12.80;79.20;;;;;;6247909;22;20174;-88
2023/10/14 05:48:42;;;;;;;8.30;1.85;;;12.80;79.30;;;;;;6247777;22;20439;-87
2023/10/14 05:51:08;;;;;;;8.38;1.27;;;12.70;79.10;;;;;;6247747;22;20429;-88
2023/10/14 05:53:33;;;;;;;7.38;1.80;;;12.90;79.50;;;;;;6248144;22;20087;-87
2023/10/14 05:56:09;;;;;;;7.18;1.48;;;12.70;79.00;;;;;;6249150;22;20008;-88
2023/10/14 05:58:36;;;;;;;6.90;1.50;;;12.70;79.10;;;;;;6249501;22;20052;-88
2023/10/14 06:01:08;;;;;;;7.95;1.83;;;12.70;79.10;;;;;;6247546;22;20087;-87
2023/10/14 06:03:33;;;;;;;7.60;1.95;;;12.70;79.20;;;;;;6221707;22;20019;-88
2023/10/14 06:06:03;;;;;;;8.75;2.05;;;12.70;79.10;;;;;;6222155;22;20343;-88
2023/10/14 06:08:32;;;;;;;11.57;2.05;;;12.60;78.90;;;;;;6247836;22;20023;-88
2023/10/14 06:10:59;;;;;;;5.65;1.73;;;12.60;78.90;;;;;;6222410;22;20336;-87
2023/10/14 06:13:27;;;;;;;9.10;1.65;;;12.70;79.10;;;;;;6222310;22;20011;-88
2023/10/14 06:15:53;;;;;;;8.40;1.77;;;12.60;79.10;;;;;;6222150;22;20019;-88
2023/10/14 06:18:19;;;;;;;6.43;1.50;;;12.80;79.20;;;;;;6221580;22;20015;-87
2023/10/14 06:20:47;;;;;;;5.35;1.40;;;12.60;79.10;;;;;;6222556;22;20340;-88
2023/10/14 06:23:13;;;;;;;9.30;1.77;;;12.90;79.40;;;;;;6222385;22;20016;-87
2023/10/14 06:25:39;;;;;;;5.85;2.05;;;12.60;79.30;;;;;;6222381;22;20012;-88
2023/10/14 06:28:07;;;;;;;8.95;1.95;;;12.60;79.20;;;;;;6222416;22;20008;-87
2023/10/14 06:30:33;;;;;;;7.82;1.67;;;12.60;79.20;;;;;;6247768;22;20100;-88
2023/10/14 06:33:03;;;;;;;9.23;1.70;;;12.50;79.20;;;;;;6246868;22;20055;-87
2023/10/14 06:35:42;;;;;;;7.68;1.45;;;12.60;79.30;;;;;;6222474;22;20007;-87
2023/10/14 06:38:09;;;;;;;7.68;1.33;;;12.50;79.10;;;;;;6222393;22;20456;-88
2023/10/14 06:40:42;;;;;;;9.63;1.50;;;12.60;79.20;;;;;;6247582;22;20011;-88
2023/10/14 06:43:12;;;;;;;8.40;1.90;;;12.50;79.10;;;;;;6247464;22;20085;-88
2023/10/14 06:45:38;;;;;;;9.30;2.28;;;12.50;79.10;;;;;;6247907;22;20018;-88
2023/10/14 06:48:05;;;;;;;11.07;2.13;;;12.50;79.00;;;;;;6247104;22;20016;-88
2023/10/14 06:50:32;;;;;;;9.80;2.88;;;12.50;78.80;;;;;;6222453;22;20016;-88
2023/10/14 06:52:58;;;;;;;10.98;1.73;;;12.50;78.60;;;;;;6222669;22;20096;-86
2023/10/14 06:55:26;;;;;;;11.82;2.55;;;12.50;78.20;;;;;;6246366;22;20019;-84
2023/10/14 06:57:53;;;;;;;10.02;2.38;;;12.50;77.90;;;;;;6220951;22;20081;-84
2023/10/14 07:00:29;;;;;;;8.98;1.80;;;12.50;77.90;;;;;;6246599;22;20008;-84
2023/10/14 07:02:57;;;;;;;10.32;1.70;;;12.50;78.00;;;;;;6220394;22;20066;-84
2023/10/14 07:05:23;;;;;;;10.77;1.83;;;12.50;77.80;;;;;;6220762;22;20016;-84
2023/10/14 07:07:49;;;;;;;11.88;2.92;;;12.50;77.90;;;;;;6246645;22;20045;-85
2023/10/14 07:10:15;;;;;;;13.32;2.88;;;12.50;77.80;;;;;;6221689;22;20394;-85
2023/10/14 07:12:42;;;;;;;8.85;2.30;;;12.50;77.60;;;;;;6246816;22;20057;-84
2023/10/14 07:15:12;;;;;;;11.07;2.28;;;12.50;77.40;;;;;;6246944;22;20065;-84
2023/10/14 07:17:42;;;;;;;9.30;2.10;;;12.40;77.40;;;;;;6242517;22;20011;-84
2023/10/14 07:20:12;;;;;;;8.73;1.70;;;12.50;77.50;;;;;;6266498;22;20401;-84
2023/10/14 07:22:42;;;;;;;12.13;2.20;;;12.50;77.70;;;;;;6264068;22;20015;-84
2023/10/14 07:25:11;;;;;;;10.32;2.13;;;12.50;77.70;;;;;;6235780;22;20019;-85
2023/10/14 07:27:38;;;;;;;10.05;2.30;;;12.50;77.70;;;;;;6249948;22;20027;-84
2023/10/14 07:30:13;;;;;;;13.02;2.30;;;12.60;77.70;;;;;;6249097;22;20050;-84
2023/10/14 07:32:44;;;;;;;10.60;2.08;;;12.60;77.50;;;;;;6248254;22;20357;-85
2023/10/14 07:35:16;;;;;;;11.60;2.92;;;12.60;77.40;;;;;;6223413;22;20011;-84
2023/10/14 07:37:46;;;;;;;12.57;2.08;;;12.60;77.20;;;;;;6248890;22;20008;-83
2023/10/14 07:40:22;;;;;;;10.73;2.38;;;12.60;77.20;;;;;;6248688;22;20429;-84
2023/10/14 07:42:53;;;;;;;10.75;2.08;;;12.60;77.30;;;;;;6249235;22;20032;-84
2023/10/14 07:45:28;;;;;;;11.02;2.15;;;12.70;77.20;;;;;;6248269;22;20042;-86
2023/10/14 07:47:57;;;;;;;11.70;2.47;;;12.70;76.90;;;;;;6249212;22;20007;-85
2023/10/14 07:50:24;;;;;;;9.82;2.38;;;12.70;76.30;;;;;;6248252;22;20004;-85
2023/10/14 07:52:54;;;;;;;8.30;2.00;;;12.80;76.20;;;;;;6248057;22;20020;-85
2023/10/14 07:55:22;;;;;;;14.00;2.55;;;12.80;76.00;;;;;;6248150;22;20086;-86
2023/10/14 07:57:51;;;;;;;8.73;2.25;;;12.90;76.10;;;;;;6248151;22;20011;-85
2023/10/14 08:00:17;;;;;;;11.23;1.90;;;12.90;76.30;;;;;;6222361;22;20016;-85
2023/10/14 08:02:43;;;;;;;14.75;4.15;;;13.00;76.40;;;;;;6222463;22;20078;-85
2023/10/14 08:05:10;;;;;;;11.68;2.45;;;13.10;76.30;;;;;;6222550;22;20019;-85
2023/10/14 08:07:46;;;;;;;11.35;2.08;;;13.30;76.50;;;;;;6222955;22;20016;-84
2023/10/14 08:10:18;;;;;;;13.10;2.28;;;13.50;76.50;;;;;;6222945;22;20501;-85
2023/10/14 08:12:50;;;;;;;11.57;2.13;;;13.70;76.20;;;;;;6248256;22;20062;-84
2023/10/14 08:15:19;;;;;;;12.98;2.80;;;13.90;75.50;;;;;;6248157;22;20012;-87
2023/10/14 08:17:48;;;;;;;9.90;2.20;;;14.10;74.70;;;;;;6248277;22;20318;-85
2023/10/14 08:20:16;;;;;;;13.23;2.78;;;14.20;74.00;;;;;;6248543;22;20011;-85
2023/10/14 08:22:45;;;;;;;11.00;2.38;;;14.40;73.70;;;;;;6222885;22;20046;-85
2023/10/14 08:25:12;;;;;;;10.55;2.10;;;14.60;73.20;;;;;;6250854;22;20015;-86
2023/10/14 08:27:41;;;;;;;8.27;1.95;;;14.70;72.50;;;;;;6248715;22;20047;-86
2023/10/14 08:30:11;;;;;;;11.07;2.42;;;14.90;71.40;;;;;;6247715;22;20016;-85
2023/10/14 08:32:44;;;;;;;9.93;2.17;;;15.00;70.50;;;;;;6222961;22;20020;-84
2023/10/14 08:35:17;;;;;;;8.20;1.75;;;15.00;69.50;;;;;;6222493;22;20016;-83
2023/10/14 08:37:50;;;;;;;8.88;1.88;;;15.10;69.00;;;;;;6248227;22;20440;-83
2023/10/14 08:40:19;;;;;;;9.48;2.40;;;15.20;69.20;;;;;;6247979;22;20421;-84
2023/10/14 08:43:08;;;;;;;9.30;2.17;;;15.20;68.50;;;;;;6223112;22;20401;-87
2023/10/14 08:45:39;;;;;;;8.93;1.92;;;15.20;67.90;;;;;;6248173;22;20008;-87
2023/10/14 08:48:11;;;;;;;8.88;2.15;;;15.20;68.20;;;;;;6222936;22;20086;-87
2023/10/14 08:50:39;;;;;;;8.10;1.75;;;15.20;68.00;;;;;;6249351;22;20322;-87
2023/10/14 08:53:10;;;;;;;10.43;2.63;;;15.10;68.40;;;;;;6248429;22;20004;-89
2023/10/14 08:55:38;;;;;;;13.18;2.95;;;15.10;68.50;;;;;;6248580;22;20023;-87
2023/10/14 08:58:05;;;;;;;9.35;1.80;;;15.10;68.40;;;;;;6247541;22;20079;-86
2023/10/14 09:00:36;;;;;;;8.95;2.10;;;15.10;68.50;;;;;;6222725;22;20008;-87
2023/10/14 09:03:06;;;;;;;9.98;2.58;;;15.00;68.80;;;;;;6247679;22;20038;-86
2023/10/14 09:05:32;;;;;;;7.65;2.47;;;15.00;69.40;;;;;;6222688;22;20026;-87
2023/10/14 09:07:57;;;;;;;9.40;2.00;;;15.10;69.60;;;;;;6223198;22;20011;-87
2023/10/14 09:10:26;;;;;;;9.13;2.00;;;15.10;69.70;;;;;;6222982;22;20018;-87
2023/10/14 09:13:06;;;;;;;6.18;1.90;;;15.20;69.60;;;;;;6249040;22;20061;-86
2023/10/14 09:15:36;;;;;;;13.75;2.42;;;15.30;68.80;;;;;;6224491;22;20491;-86
2023/10/14 09:18:01;;;;;;;7.50;1.55;;;15.50;68.70;;;;;;6223109;22;20049;-86
2023/10/14 09:20:38;;;;;;;7.90;2.55;;;15.60;68.40;;;;;;6221622;22;20360;-86
2023/10/14 09:23:16;;;;;;;9.15;1.80;;;15.60;67.40;;;;;;6247683;22;20077;-87
2023/10/14 09:25:42;;;;;;;9.65;2.08;;;15.70;67.40;;;;;;6247693;22;20042;-86
2023/10/14 09:28:07;;;;;;;9.05;2.05;;;15.70;67.50;;;;;;6247021;22;20012;-86
2023/10/14 09:30:35;;;;;;;11.20;2.90;;;15.70;67.10;;;;;;6247387;22;20012;-87
2023/10/14 09:33:02;;;;;;;9.48;2.28;;;15.70;66.50;;;;;;6224655;22;20012;-87
2023/10/14 09:35:29;;;;;;;6.22;1.35;;;15.70;66.40;;;;;;6226611;22;20103;-86
2023/10/14 09:37:55;;;;;;;9.25;2.25;;;15.70;66.20;;;;;;6250788;22;20057;-87
2023/10/14 09:40:22;;;;;;;6.63;1.90;;;15.60;66.00;;;;;;6247980;22;20313;-87
2023/10/14 09:42:48;;;;;;;8.48;2.05;;;15.60;65.50;;;;;;6246964;22;20520;-87
2023/10/14 09:45:19;;;;;;;7.80;2.35;;;15.50;65.30;;;;;;6245742;22;20082;-86
2023/10/14 09:47:47;;;;;;;10.00;1.80;;;15.50;65.60;;;;;;6247236;22;20019;-87
2023/10/14 09:50:14;;;;;;;7.63;1.80;;;15.40;65.90;;;;;;6246775;22;20093;-85
2023/10/14 09:52:47;;;;;;;6.78;1.95;;;15.40;65.80;;;;;;6246945;22;20310;-85
2023/10/14 09:55:15;;;;;;;8.00;1.48;;;15.20;64.80;;;;;;6222846;22;20015;-86
2023/10/14 09:57:45;;;;;;;8.73;1.58;;;15.20;64.50;;;;;;6246905;22;20012;-86
2023/10/14 10:00:11;;;;;;;7.60;1.77;;;15.30;64.50;;;;;;6222151;22;20010;-85
2023/10/14 10:02:43;;;;;;;8.68;1.63;;;15.10;65.20;;;;;;6247164;22;20437;-85
2023/10/14 10:05:16;;;;;;;8.57;1.70;;;15.10;64.90;;;;;;6268677;22;20026;-86
2023/10/14 10:08:32;;;;;;;8.75;1.85;;;15.10;64.80;;;;;;6274680;22;20004;-88
2023/10/14 10:10:59;;;;;;;6.85;1.60;;;15.00;65.00;;;;;;6183286;23;20044;-86
2023/10/14 10:13:28;;;;;;;6.45;1.48;;;14.90;65.40;;;;;;6157269;23;20021;-86
2023/10/14 10:16:02;;;;;;;6.80;1.63;;;14.90;65.50;;;;;;6131542;23;20017;-86
2023/10/14 10:18:56;;;;;;;7.10;1.98;;;14.90;66.10;;;;;;6133167;23;20021;-87
2023/10/14 10:21:30;;;;;;;8.65;2.08;;;14.90;65.70;;;;;;6131663;23;20028;-87
2023/10/14 10:24:00;;;;;;;;;;;14.90;66.50;;;;;;6156478;23;20127;-87
2023/10/14 10:26:25;;;;;;;7.72;1.80;;;14.80;66.60;;;;;;6154454;23;20227;-86
2023/10/14 10:28:51;;;;;;;7.45;1.98;;;14.80;66.40;;;;;;6155979;23;20017;-88
2023/10/14 10:31:21;;;;;;;9.10;2.35;;;14.70;66.00;;;;;;6132008;23;20088;-88
2023/10/14 10:34:00;;;;;;;8.55;1.73;;;14.70;65.10;;;;;;6156410;23;20013;-86
2023/10/14 10:36:36;;;;;;;8.77;1.20;;;14.70;64.10;;;;;;6155459;23;20009;-86
2023/10/14 10:39:15;;;;;;;8.80;2.25;;;14.70;63.80;;;;;;6155394;23;20171;-88
2023/10/14 10:41:41;;;;;;;7.60;1.55;;;14.70;63.60;;;;;;6155583;23;20119;-87
2023/10/14 10:44:09;;;;;;;9.43;1.80;;;14.70;63.60;;;;;;6154904;23;20021;-86
2023/10/14 10:46:50;;;;;;;7.43;1.50;;;14.70;63.80;;;;;;6142994;22;20013;-86
2023/10/14 10:49:48;;;;;;;6.30;1.30;;;14.70;63.60;;;;;;6247373;22;20016;-89
2023/10/14 10:52:14;;;;;;;6.25;1.65;;;14.70;63.80;;;;;;6246831;22;20333;-89
2023/10/14 10:54:44;;;;;;;7.40;1.75;;;14.70;63.80;;;;;;6247376;22;20015;-87
2023/10/14 10:57:14;;;;;;;7.68;1.20;;;14.70;64.20;;;;;;6246967;22;20008;-85
2023/10/14 10:59:40;;;;;;;6.45;1.73;;;14.80;64.30;;;;;;6246990;22;20012;-86
2023/10/14 11:02:10;;;;;;;7.13;1.10;;;14.80;63.90;;;;;;6221274;22;20080;-88
2023/10/14 11:04:36;;;;;;;6.90;1.20;;;14.90;61.80;;;;;;6221768;22;20443;-87
2023/10/14 11:07:03;;;;;;;4.32;1.20;;;14.90;60.40;;;;;;6221547;22;20022;-87
2023/10/14 11:09:34;;;;;;;3.85;1.00;;;14.90;60.00;;;;;;6246091;22;20015;-87
2023/10/14 11:12:00;;;;;;;7.05;0.98;;;15.30;59.70;;;;;;6246088;22;20016;-87
2023/10/14 11:14:26;;;;;;;8.23;1.85;;;15.00;59.90;;;;;;6221299;22;20018;-86
2023/10/14 11:16:57;;;;;;;6.53;1.00;;;15.00;59.80;;;;;;6247448;22;20341;-86
2023/10/14 11:19:26;;;;;;;9.07;1.83;;;15.00;58.80;;;;;;6221869;22;20012;-87
2023/10/14 11:21:53;;;;;;;7.30;1.40;;;15.10;59.50;;;;;;6246222;22;20019;-86
2023/10/14 11:24:19;;;;;;;7.13;0.93;;;15.00;59.40;;;;;;6245575;22;20306;-87
2023/10/14 11:26:45;;;;;;;9.07;1.77;;;15.10;59.40;;;;;;6245703;22;20070;-82
2023/10/14 11:29:11;;;;;;;6.40;1.23;;;15.10;59.90;;;;;;6245597;22;20330;-83
2023/10/14 11:31:39;;;;;;;9.57;2.00;;;15.10;59.30;;;;;;6218378;22;20036;-84
2023/10/14 11:34:06;;;;;;;7.63;1.30;;;15.20;59.50;;;;;;6245039;22;20089;-84
2023/10/14 11:36:32;;;;;;;9.50;1.58;;;15.20;59.10;;;;;;6220724;22;20008;-85
2023/10/14 11:38:58;;;;;;;11.23;1.90;;;15.20;59.20;;;;;;6243315;22;20019;-85
2023/10/14 11:41:27;;;;;;;4.55;1.23;;;15.30;59.20;;;;;;6246274;22;20382;-85
2023/10/14 11:43:53;;;;;;;9.25;1.95;;;15.30;59.60;;;;;;6221585;22;20511;-84
2023/10/14 11:46:20;;;;;;;8.07;1.73;;;15.40;59.50;;;;;;6246515;22;20016;-86
2023/10/14 11:48:47;;;;;;;6.53;1.23;;;15.40;58.90;;;;;;6246534;22;20022;-86
2023/10/14 11:51:22;;;;;;;9.73;1.65;;;15.30;58.10;;;;;;6221254;22;20101;-87
2023/10/14 11:53:53;;;;;;;5.90;1.15;;;15.30;57.60;;;;;;6273929;22;20015;-85
2023/10/14 11:56:19;;;;;;;7.80;1.38;;;15.30;57.40;;;;;;6245524;22;20719;-86
2023/10/14 11:58:45;;;;;;;6.72;1.10;;;15.30;57.00;;;;;;6245537;22;20008;-85
2023/10/14 12:01:12;;;;;;;8.65;1.67;;;15.30;56.60;;;;;;6245982;22;20012;-85
2023/10/14 12:03:39;;;;;;;6.40;1.63;;;15.30;56.40;;;;;;6245870;22;20019;-84
2023/10/14 12:06:07;;;;;;;7.50;1.40;;;15.30;55.60;;;;;;6245390;22;20424;-85
2023/10/14 12:08:38;;;;;;;7.13;1.30;;;15.30;56.00;;;;;;6245272;22;20384;-87
2023/10/14 12:11:13;;;;;;;8.27;1.60;;;15.30;56.50;;;;;;6245573;22;20077;-85
2023/10/14 12:13:39;;;;;;;5.18;1.38;;;15.30;56.30;;;;;;6222031;22;20011;-84
2023/10/14 12:16:06;;;;;;;7.38;1.65;;;15.30;56.30;;;;;;6247279;22;20429;-86
2023/10/14 12:18:35;;;;;;;5.90;1.45;;;15.40;56.70;;;;;;6248068;22;20004;-85
2023/10/14 12:21:02;;;;;;;9.65;1.70;;;15.40;56.80;;;;;;6221701;22;20008;-84
2023/10/14 12:23:31;;;;;;;5.50;1.60;;;15.40;57.10;;;;;;6247740;22;20387;-85
2023/10/14 12:26:01;;;;;;;9.10;1.65;;;15.40;56.80;;;;;;6248112;22;20014;-85
2023/10/14 12:28:32;;;;;;;7.40;1.80;;;15.30;56.00;;;;;;6222025;22;20039;-85
2023/10/14 12:31:00;;;;;;;6.05;1.45;;;15.30;56.40;;;;;;6222483;22;20539;-86
2023/10/14 12:33:32;;;;;;;9.57;1.83;;;15.30;57.50;;;;;;6246994;22;20044;-88
2023/10/14 12:36:08;;;;;;;10.73;1.77;;;15.20;59.00;;;;;;6221786;22;20057;-88
2023/10/14 12:38:35;;;;;;;9.00;1.90;;;15.20;59.10;;;;;;6247769;22;20008;-86
2023/10/14 12:41:02;;;;;;;11.65;2.22;;;15.20;59.20;;;;;;6247345;22;20070;-86
2023/10/14 12:43:32;;;;;;;7.15;1.45;;;15.10;58.60;;;;;;6275252;22;20088;-86
2023/10/14 12:49:03;;;;;;;9.07;2.30;;;15.00;57.60;;;;;;6185731;23;20450;-91
2023/10/14 12:51:33;;;;;;;9.48;2.55;;;14.90;57.70;;;;;;6211442;23;20054;-87
2023/10/14 12:54:00;;;;;;;8.23;1.92;;;14.90;57.40;;;;;;6191491;23;20040;-88
2023/10/14 12:56:26;;;;;;;8.25;1.90;;;14.80;57.00;;;;;;6193944;23;20173;-87
2023/10/14 12:58:53;;;;;;;10.00;1.80;;;14.80;56.90;;;;;;6205735;23;20056;-89
2023/10/14 13:01:22;;;;;;;10.25;2.40;;;14.70;56.70;;;;;;6211083;23;20064;-87
2023/10/14 13:03:52;;;;;;;10.38;2.15;;;14.70;57.10;;;;;;6212302;23;20056;-86
2023/10/14 13:06:26;;;;;;;12.85;2.95;;;14.60;57.80;;;;;;6209747;23;20025;-87
2023/10/14 13:09:00;;;;;;;8.48;1.85;;;14.60;57.00;;;;;;6185999;23;20032;-86
2023/10/14 13:11:30;;;;;;;8.52;2.28;;;14.60;56.00;;;;;;6186699;23;20069;-86
2023/10/14 13:13:56;;;;;;;9.18;1.75;;;14.60;55.50;;;;;;6186670;23;20063;-87
2023/10/14 13:16:24;;;;;;;8.73;1.85;;;14.60;54.90;;;;;;6186274;23;20019;-85
2023/10/14 13:18:50;;;;;;;11.25;1.83;;;14.50;54.40;;;;;;6185056;23;20020;-85
2023/10/14 13:21:19;;;;;;;12.38;2.38;;;14.50;54.40;;;;;;6186087;23;20091;-85
2023/10/14 13:23:46;;;;;;;10.27;2.38;;;14.70;54.50;;;;;;6239228;22;20087;-85
2023/10/14 13:26:16;;;;;;;11.48;2.53;;;14.40;54.80;;;;;;6250561;22;20464;-86
2023/10/14 13:28:45;;;;;;;9.13;1.65;;;14.40;55.00;;;;;;6247736;22;20060;-86
2023/10/14 13:31:12;;;;;;;13.98;2.30;;;14.40;55.30;;;;;;6247762;22;20015;-86
2023/10/14 13:33:38;;;;;;;8.95;2.10;;;14.40;55.90;;;;;;6221752;22;20012;-88
2023/10/14 13:36:09;;;;;;;13.32;2.13;;;14.40;56.10;;;;;;6247323;22;20004;-85